createdAt,value
2022-09-23T00:01:23.255Z,98340.53
2022-09-23T00:03:51.134Z,98329.69
2022-09-23T00:06:24.281Z,98333.78
2022-09-23T00:14:23.867Z,98331.47
2022-09-23T00:16:53.666Z,98326.38
2022-09-23T00:19:21.893Z,98327.38
2022-09-23T00:21:49.653Z,98332.88
2022-09-23T00:24:17.590Z,98336.72
2022-09-23T00:26:45.419Z,98325.31
2022-09-23T00:29:13.301Z,98322.00
2022-09-23T00:31:41.065Z,98323.41
2022-09-23T00:34:11.603Z,98321.59
2022-09-23T00:36:40.569Z,98323.59
2022-09-23T00:39:08.300Z,98324.41
2022-09-23T00:41:36.609Z,98325.81
2022-09-23T00:44:42.229Z,98323.53
2022-09-23T00:47:35.603Z,98329.84
2022-09-23T00:50:25.005Z,98319.25
2022-09-23T00:52:57.030Z,98320.63
2022-09-23T00:55:33.281Z,98317.00
2022-09-23T00:58:06.189Z,98311.09
2022-09-23T01:00:35.353Z,98309.47
2022-09-23T01:03:05.294Z,98305.44
2022-09-23T01:05:34.543Z,98307.47
2022-09-23T01:08:05.120Z,98305.59
2022-09-23T01:11:17.949Z,98315.59
2022-09-23T01:14:08.471Z,98301.97
2022-09-23T01:17:02.222Z,98297.31
2022-09-23T01:20:03.750Z,98296.50
2022-09-23T01:23:00.649Z,98295.66
2022-09-23T01:25:52.231Z,98287.78
2022-09-23T01:28:39.273Z,98288.22
2022-09-23T01:31:29.253Z,98288.00
2022-09-23T01:34:19.144Z,98288.63
2022-09-23T01:36:55.858Z,98279.44
2022-09-23T01:39:39.457Z,98278.97
2022-09-23T01:42:23.251Z,98280.00
2022-09-23T01:45:01.858Z,98281.78
2022-09-23T01:47:40.168Z,98274.41
2022-09-23T01:50:33.743Z,98277.25
2022-09-23T01:53:14.773Z,98272.34
2022-09-23T01:55:48.814Z,98267.03
2022-09-23T01:58:24.798Z,98270.13
2022-09-23T02:01:01.507Z,98266.66
2022-09-23T02:03:34.330Z,98263.00
2022-09-23T02:06:11.639Z,98256.88
2022-09-23T02:09:03.598Z,98263.81
2022-09-23T02:11:36.593Z,98260.34
2022-09-23T02:14:17.651Z,98254.09
2022-09-23T02:16:48.860Z,98256.13
2022-09-23T02:19:35.848Z,98249.97
2022-09-23T02:22:09.003Z,98251.72
2022-09-23T02:24:39.297Z,98243.97
2022-09-23T02:27:12.799Z,98250.47
2022-09-23T02:29:54.233Z,98252.53
2022-09-23T02:32:34.139Z,98249.31
2022-09-23T02:35:24.683Z,98246.47
2022-09-23T02:38:26.251Z,98247.53
2022-09-23T02:41:26.633Z,98239.19
2022-09-23T02:44:00.099Z,98242.28
2022-09-23T02:46:30.279Z,98236.97
2022-09-23T02:49:27.094Z,98230.47
2022-09-23T02:51:55.067Z,98233.94
2022-09-23T02:54:27.707Z,98231.88
2022-09-23T02:56:55.689Z,98232.44
2022-09-23T02:59:24.647Z,98229.19
2022-09-23T03:02:22.124Z,98228.75
2022-09-23T03:04:52.553Z,98225.44
2022-09-23T03:07:51.382Z,98224.41
2022-09-23T03:10:26.222Z,98215.66
2022-09-23T03:13:31.957Z,98217.66
2022-09-23T03:16:11.577Z,98212.56
2022-09-23T03:18:58.277Z,98212.75
2022-09-23T03:21:32.537Z,98208.66
2022-09-23T03:24:05.053Z,98203.38
2022-09-23T03:26:36.621Z,98197.47
2022-09-23T03:29:06.897Z,98189.69
2022-09-23T03:31:35.709Z,98192.53
2022-09-23T03:34:09.117Z,98192.34
2022-09-23T03:36:52.964Z,98189.91
2022-09-23T03:39:44.740Z,98193.91
2022-09-23T03:42:26.606Z,98189.91
2022-09-23T03:44:57.502Z,98189.25
2022-09-23T03:47:27.738Z,98186.19
2022-09-23T03:49:56.997Z,98188.63
2022-09-23T03:52:26.006Z,98182.19
2022-09-23T03:54:54.006Z,98187.34
2022-09-23T03:57:22.941Z,98184.97
2022-09-23T03:59:51.340Z,98179.72
2022-09-23T04:02:20.959Z,98183.59
2022-09-23T04:04:48.936Z,98179.56
2022-09-23T04:07:16.988Z,98174.69
2022-09-23T04:09:45.161Z,98174.47
2022-09-23T04:12:15.420Z,98174.53
2022-09-23T04:14:43.736Z,98174.97
2022-09-23T04:17:12.506Z,98177.00
2022-09-23T04:19:40.998Z,98177.84
2022-09-23T04:22:09.437Z,98165.41
2022-09-23T04:24:37.546Z,98162.56
2022-09-23T04:27:05.487Z,98166.22
2022-09-23T04:29:33.361Z,98173.75
2022-09-23T04:32:01.166Z,98171.69
2022-09-23T04:34:29.001Z,98161.69
2022-09-23T04:36:56.697Z,98169.81
2022-09-23T04:39:24.496Z,98158.56
2022-09-23T04:41:52.611Z,98160.88
2022-09-23T04:44:21.472Z,98162.91
2022-09-23T04:46:49.603Z,98161.72
2022-09-23T04:49:17.919Z,98165.00
2022-09-23T04:51:45.798Z,98155.22
2022-09-23T04:54:15.216Z,98161.16
2022-09-23T04:56:43.195Z,98154.66
2022-09-23T04:59:11.300Z,98147.78
2022-09-23T05:01:39.241Z,98154.19
2022-09-23T05:04:10.476Z,98148.31
2022-09-23T05:06:38.476Z,98151.81
2022-09-23T05:09:08.352Z,98152.59
2022-09-23T05:11:36.687Z,98150.03
2022-09-23T05:14:04.461Z,98154.75
2022-09-23T05:16:32.461Z,98139.50
2022-09-23T05:19:00.224Z,98141.84
2022-09-23T05:21:31.648Z,98145.16
2022-09-23T05:24:00.928Z,98147.16
2022-09-23T05:26:31.252Z,98146.44
2022-09-23T05:29:00.055Z,98145.13
2022-09-23T05:31:30.074Z,98139.88
2022-09-23T05:34:07.105Z,98144.31
2022-09-23T05:36:38.779Z,98144.19
2022-09-23T05:39:08.154Z,98144.38
2022-09-23T05:41:36.845Z,98151.59
2022-09-23T05:44:05.209Z,98148.84
2022-09-23T05:46:33.944Z,98155.53
2022-09-23T05:49:03.734Z,98142.09
2022-09-23T05:51:33.919Z,98143.75
2022-09-23T05:54:04.284Z,98146.75
2022-09-23T05:56:33.826Z,98141.28
2022-09-23T05:59:02.767Z,98142.06
2022-09-23T06:01:34.191Z,98143.91
2022-09-23T06:04:04.492Z,98132.66
2022-09-23T06:06:34.282Z,98135.22
2022-09-23T06:09:03.342Z,98141.63
2022-09-23T06:11:33.585Z,98138.94
2022-09-23T06:14:02.724Z,98136.88
2022-09-23T06:16:33.784Z,98136.44
2022-09-23T06:19:06.546Z,98134.25
2022-09-23T06:21:37.852Z,98135.00
2022-09-23T06:24:07.198Z,98134.34
2022-09-23T06:26:37.908Z,98135.91
2022-09-23T06:29:12.486Z,98139.81
2022-09-23T06:31:42.267Z,98140.53
2022-09-23T06:34:13.699Z,98145.72
2022-09-23T06:36:45.531Z,98142.44
2022-09-23T06:39:15.730Z,98150.06
2022-09-23T06:41:45.447Z,98145.91
2022-09-23T06:44:14.739Z,98148.00
2022-09-23T06:46:42.988Z,98152.47
2022-09-23T06:49:13.183Z,98147.06
2022-09-23T06:51:41.771Z,98148.88
2022-09-23T06:54:09.680Z,98147.56
2022-09-23T06:56:39.543Z,98150.19
2022-09-23T06:59:11.021Z,98155.66
2022-09-23T07:01:39.388Z,98148.84
2022-09-23T07:04:08.024Z,98148.00
2022-09-23T07:06:36.436Z,98154.56
2022-09-23T07:09:05.557Z,98145.91
2022-09-23T07:11:33.595Z,98144.44
2022-09-23T07:14:01.334Z,98148.06
2022-09-23T07:16:29.128Z,98148.44
2022-09-23T07:18:57.180Z,98154.19
2022-09-23T07:21:24.959Z,98150.34
2022-09-23T07:23:52.774Z,98150.50
2022-09-23T07:26:20.839Z,98147.88
2022-09-23T07:28:53.173Z,98155.84
2022-09-23T07:31:32.669Z,98156.03
2022-09-23T07:34:04.923Z,98153.28
2022-09-23T07:36:33.097Z,98147.16
2022-09-23T07:39:02.555Z,98156.41
2022-09-23T07:41:32.111Z,98149.44
2022-09-23T07:44:00.793Z,98149.88
2022-09-23T07:46:31.772Z,98145.00
2022-09-23T07:49:00.182Z,98147.91
2022-09-23T07:51:36.274Z,98148.94
2022-09-23T07:54:08.795Z,98150.09
2022-09-23T07:56:37.639Z,98153.63
2022-09-23T07:59:09.245Z,98146.38
2022-09-23T08:01:40.302Z,98154.22
2022-09-23T08:04:14.144Z,98147.59
2022-09-23T08:06:47.054Z,98151.13
2022-09-23T08:09:16.468Z,98156.47
2022-09-23T08:11:44.332Z,98158.03
2022-09-23T08:14:14.118Z,98157.91
2022-09-23T08:16:42.458Z,98158.28
2022-09-23T08:19:10.272Z,98154.81
2022-09-23T08:21:39.610Z,98155.78
2022-09-23T08:24:13.755Z,98164.59
2022-09-23T08:26:41.653Z,98166.56
2022-09-23T08:29:12.530Z,98161.28
2022-09-23T08:31:41.101Z,98171.38
2022-09-23T08:34:09.256Z,98159.09
2022-09-23T08:36:37.203Z,98160.06
2022-09-23T08:39:06.426Z,98156.69
2022-09-23T08:41:43.973Z,98149.78
2022-09-23T08:44:17.917Z,98159.38
2022-09-23T08:46:51.323Z,98158.97
2022-09-23T08:49:32.358Z,98154.19
2022-09-23T08:52:07.102Z,98162.25
2022-09-23T08:54:34.899Z,98154.69
2022-09-23T08:57:05.614Z,98163.22
2022-09-23T08:59:44.377Z,98162.06
2022-09-23T09:02:23.846Z,98154.84
2022-09-23T09:04:56.753Z,98154.78
2022-09-23T09:07:37.002Z,98151.28
2022-09-23T09:10:18.392Z,98157.41
2022-09-23T09:12:55.557Z,98157.00
2022-09-23T09:15:29.135Z,98156.00
2022-09-23T09:18:10.472Z,98154.34
2022-09-23T09:20:49.197Z,98154.13
2022-09-23T09:23:31.334Z,98149.75
2022-09-23T09:26:01.854Z,98145.78
2022-09-23T09:28:48.763Z,98144.25
2022-09-23T09:31:22.728Z,98137.53
2022-09-23T09:34:26.607Z,98137.78
2022-09-23T09:37:06.744Z,98134.34
2022-09-23T09:39:37.093Z,98138.81
2022-09-23T09:42:06.693Z,98135.34
2022-09-23T09:44:59.455Z,98127.94
2022-09-23T09:47:51.895Z,98132.31
2022-09-23T09:50:50.437Z,98126.16
2022-09-23T09:53:32.412Z,98129.16
2022-09-23T09:56:07.352Z,98119.63
2022-09-23T09:58:46.250Z,98118.72
2022-09-23T10:01:43.520Z,98116.41
2022-09-23T10:04:25.105Z,98110.84
2022-09-23T10:07:13.068Z,98111.22
2022-09-23T10:09:48.707Z,98113.16
2022-09-23T10:12:22.550Z,98111.13
2022-09-23T10:14:56.152Z,98112.00
2022-09-23T10:17:35.835Z,98105.63
2022-09-23T10:20:08.558Z,98105.38
2022-09-23T10:22:39.960Z,98099.03
2022-09-23T10:25:22.545Z,98100.34
2022-09-23T10:27:50.610Z,98102.13
2022-09-23T10:30:24.819Z,98100.78
2022-09-23T10:32:55.261Z,98096.50
2022-09-23T10:35:25.128Z,98097.31
2022-09-23T10:37:57.773Z,98092.66
2022-09-23T10:40:58.988Z,98089.78
2022-09-23T10:44:15.377Z,98091.41
2022-09-23T10:46:49.428Z,98081.28
2022-09-23T10:49:44.059Z,98087.47
2022-09-23T10:52:27.600Z,98075.94
2022-09-23T10:55:29.808Z,98077.53
2022-09-23T10:58:23.949Z,98075.00
2022-09-23T11:00:54.547Z,98069.56
2022-09-23T11:03:32.404Z,98072.25
2022-09-23T11:06:21.734Z,98067.25
2022-09-23T11:08:59.514Z,98065.53
2022-09-23T11:11:58.854Z,98059.72
2022-09-23T11:14:32.506Z,98055.44
2022-09-23T11:17:16.691Z,98054.84
2022-09-23T11:20:12.140Z,98053.84
2022-09-23T11:23:21.309Z,98051.72
2022-09-23T11:26:07.137Z,98046.97
2022-09-23T11:28:58.161Z,98046.94
2022-09-23T11:31:38.441Z,98041.19
2022-09-23T11:34:42.972Z,98035.00
2022-09-23T11:37:43.470Z,98030.78
2022-09-23T11:40:32.157Z,98027.84
2022-09-23T11:43:15.806Z,98022.78
2022-09-23T11:45:55.279Z,98020.34
2022-09-23T11:48:33.836Z,98026.19
2022-09-23T11:51:15.466Z,98018.28
2022-09-23T11:53:47.777Z,98013.94
2022-09-23T11:56:49.124Z,98010.91
2022-09-23T11:59:41.229Z,98010.97
2022-09-23T12:02:21.114Z,98012.84
2022-09-23T12:05:01.486Z,98006.06
2022-09-23T12:07:43.708Z,98007.97
2022-09-23T12:10:12.583Z,98005.59
2022-09-23T12:12:49.690Z,98009.38
2022-09-23T12:15:29.170Z,98014.69
2022-09-23T12:18:23.229Z,98002.97
2022-09-23T12:21:03.429Z,98004.84
2022-09-23T12:24:06.520Z,98008.25
2022-09-23T12:26:35.650Z,98001.69
2022-09-23T12:29:05.865Z,98002.13
2022-09-23T12:31:41.195Z,97992.03
2022-09-23T12:34:42.261Z,97984.75
2022-09-23T12:37:10.113Z,97985.03
2022-09-23T12:39:39.191Z,97986.13
2022-09-23T12:42:15.833Z,97986.91
2022-09-23T12:44:47.543Z,97984.50
2022-09-23T12:47:15.333Z,97983.97
2022-09-23T12:49:43.912Z,97987.47
2022-09-23T12:52:17.650Z,97980.44
2022-09-23T12:54:47.972Z,97972.59
2022-09-23T12:57:33.794Z,97979.09
2022-09-23T13:00:01.615Z,97973.69
2022-09-23T13:02:34.593Z,97963.47
2022-09-23T13:05:50.425Z,97961.81
2022-09-23T13:08:25.225Z,97965.03
2022-09-23T13:10:56.776Z,97957.47
2022-09-23T13:13:32.616Z,97955.38
2022-09-23T13:16:30.781Z,97955.56
2022-09-23T13:19:07.525Z,97946.63
2022-09-23T13:21:47.006Z,97942.00
2022-09-23T13:24:25.347Z,97943.34
2022-09-23T13:26:55.397Z,97936.09
2022-09-23T13:29:58.047Z,97934.75
2022-09-23T13:32:31.916Z,97940.03
2022-09-23T13:35:03.649Z,97942.25
2022-09-23T13:37:48.962Z,97940.00
2022-09-23T13:40:26.971Z,97934.19
2022-09-23T13:43:09.508Z,97930.97
2022-09-23T13:45:41.628Z,97921.53
2022-09-23T13:48:15.592Z,97918.84
2022-09-23T13:50:50.086Z,97918.59
2022-09-23T13:53:25.306Z,97914.00
2022-09-23T13:56:06.387Z,97912.38
2022-09-23T13:58:36.187Z,97918.22
2022-09-23T14:01:08.841Z,97911.84
2022-09-23T14:03:39.148Z,97906.16
2022-09-23T14:06:16.899Z,97909.66
2022-09-23T14:08:48.369Z,97910.56
2022-09-23T14:11:22.390Z,97911.38
2022-09-23T14:13:55.189Z,97907.44
2022-09-23T14:16:26.996Z,97905.94
2022-09-23T14:19:00.293Z,97902.78
2022-09-23T14:21:39.781Z,97896.72
2022-09-23T14:24:16.683Z,97900.38
2022-09-23T14:26:48.191Z,97889.13
2022-09-23T14:29:20.174Z,97894.22
2022-09-23T14:32:00.885Z,97887.78
2022-09-23T14:35:01.098Z,97882.81
2022-09-23T14:37:51.735Z,97884.47
2022-09-23T14:40:28.089Z,97884.44
2022-09-23T14:42:55.854Z,97884.75
2022-09-23T14:45:26.728Z,97882.34
2022-09-23T14:48:00.324Z,97875.34
2022-09-23T14:50:50.645Z,97867.53
2022-09-23T14:53:24.565Z,97876.41
2022-09-23T14:55:53.525Z,97876.06
2022-09-23T14:58:24.238Z,97872.56
2022-09-23T15:01:02.676Z,97870.28
2022-09-23T15:03:30.792Z,97869.44
2022-09-23T15:06:08.471Z,97866.31
2022-09-23T15:08:37.178Z,97863.53
2022-09-23T15:11:08.163Z,97859.19
2022-09-23T15:13:42.088Z,97855.53
2022-09-23T15:16:12.209Z,97852.59
2022-09-23T15:18:43.788Z,97858.31
2022-09-23T15:21:19.557Z,97854.16
2022-09-23T15:23:56.451Z,97860.50
2022-09-23T15:26:47.377Z,97859.22
2022-09-23T15:29:15.193Z,97861.56
2022-09-23T15:31:43.058Z,97861.00
2022-09-23T15:34:11.949Z,97857.16
2022-09-23T15:36:40.171Z,97855.78
2022-09-23T15:39:11.209Z,97852.97
2022-09-23T15:41:39.199Z,97856.06
2022-09-23T15:44:18.950Z,97866.06
2022-09-23T15:46:50.164Z,97859.47
2022-09-23T15:49:35.222Z,97859.44
2022-09-23T15:52:04.992Z,97854.50
2022-09-23T15:54:33.961Z,97852.91
2022-09-23T15:57:02.301Z,97851.75
2022-09-23T15:59:31.202Z,97844.19
2022-09-23T16:02:06.049Z,97834.75
2022-09-23T16:04:34.391Z,97834.25
2022-09-23T16:07:04.782Z,97831.13
2022-09-23T16:09:40.692Z,97825.84
2022-09-23T16:12:12.143Z,97829.84
2022-09-23T16:14:39.893Z,97831.75
2022-09-23T16:17:09.942Z,97831.09
2022-09-23T16:19:37.722Z,97835.06
2022-09-23T16:22:05.692Z,97826.16
2022-09-23T16:24:33.532Z,97824.47
2022-09-23T16:27:04.961Z,97816.69
2022-09-23T16:29:32.791Z,97815.56
2022-09-23T16:32:01.244Z,97817.44
2022-09-23T16:34:29.828Z,97816.47
2022-09-23T16:36:57.514Z,97817.44
2022-09-23T16:39:25.326Z,97816.53
2022-09-23T16:41:53.005Z,97823.13
2022-09-23T16:44:21.392Z,97819.78
2022-09-23T16:46:49.353Z,97823.91
2022-09-23T16:49:18.223Z,97817.44
2022-09-23T16:51:46.004Z,97819.78
2022-09-23T16:54:13.833Z,97823.16
2022-09-23T16:56:46.593Z,97817.00
2022-09-23T16:59:15.556Z,97820.41
2022-09-23T17:02:02.574Z,97822.09
2022-09-23T17:04:30.397Z,97820.38
2022-09-23T17:06:58.524Z,97817.38
2022-09-23T17:09:30.454Z,97818.56
2022-09-23T17:12:09.584Z,97810.41
2022-09-23T17:14:37.393Z,97807.84
2022-09-23T17:17:05.223Z,97812.19
2022-09-23T17:19:34.284Z,97806.97
2022-09-23T17:22:01.944Z,97811.94
2022-09-23T17:24:29.744Z,97809.06
2022-09-23T17:26:57.364Z,97803.72
2022-09-23T17:29:27.089Z,97812.22
2022-09-23T17:31:54.920Z,97809.22
2022-09-23T17:34:24.195Z,97802.16
2022-09-23T17:36:51.973Z,97802.31
2022-09-23T17:39:19.683Z,97804.84
2022-09-23T17:41:47.406Z,97798.38
2022-09-23T17:44:16.363Z,97801.16
2022-09-23T17:46:44.137Z,97805.94
2022-09-23T17:49:12.352Z,97799.69
2022-09-23T17:51:40.113Z,97803.63
2022-09-23T17:54:07.984Z,97806.66
2022-09-23T17:56:35.814Z,97805.28
2022-09-23T17:59:03.766Z,97800.63
2022-09-23T18:01:31.494Z,97810.97
2022-09-23T18:04:01.483Z,97805.75
2022-09-23T18:06:31.944Z,97803.56
2022-09-23T18:09:04.047Z,97796.00
2022-09-23T18:11:35.054Z,97802.84
2022-09-23T18:14:23.637Z,97802.38
2022-09-23T18:16:53.815Z,97800.41
2022-09-23T18:19:24.768Z,97803.78
2022-09-23T18:21:56.256Z,97804.81
2022-09-23T18:24:33.148Z,97805.06
2022-09-23T18:27:01.829Z,97806.09
2022-09-23T18:29:29.633Z,97804.34
2022-09-23T18:31:59.066Z,97808.53
2022-09-23T18:34:26.913Z,97803.31
2022-09-23T18:36:56.326Z,97807.59
2022-09-23T18:39:23.996Z,97802.97
2022-09-23T18:41:51.853Z,97802.59
2022-09-23T18:44:20.233Z,97800.97
2022-09-23T18:46:48.064Z,97795.84
2022-09-23T18:49:34.343Z,97796.31
2022-09-23T18:52:02.472Z,97800.28
2022-09-23T18:54:30.512Z,97795.97
2022-09-23T18:56:59.441Z,97803.63
2022-09-23T18:59:29.925Z,97799.78
2022-09-23T19:01:57.810Z,97796.06
2022-09-23T19:04:27.565Z,97800.81
2022-09-23T19:06:56.762Z,97793.19
2022-09-23T19:09:24.904Z,97797.59
2022-09-23T19:11:53.034Z,97789.34
2022-09-23T19:14:20.894Z,97793.25
2022-09-23T19:16:51.672Z,97793.88
2022-09-23T19:19:19.413Z,97792.00
2022-09-23T19:21:47.273Z,97795.47
2022-09-23T19:24:20.043Z,97793.66
2022-09-23T19:26:48.726Z,97787.03
2022-09-23T19:29:19.766Z,97786.69
2022-09-23T19:31:48.640Z,97787.63
2022-09-23T19:34:19.173Z,97791.91
2022-09-23T19:36:47.932Z,97797.47
2022-09-23T19:39:21.483Z,97802.81
2022-09-23T19:41:50.192Z,97795.03
2022-09-23T19:44:20.127Z,97804.22
2022-09-23T19:46:55.087Z,97797.22
2022-09-23T19:49:25.011Z,97806.88
2022-09-23T19:51:56.243Z,97801.19
2022-09-23T19:54:27.104Z,97801.19
2022-09-23T19:56:55.466Z,97791.53
2022-09-23T19:59:23.182Z,97793.06
2022-09-23T20:01:51.022Z,97794.53
2022-09-23T20:04:18.793Z,97794.41
2022-09-23T20:06:48.201Z,97790.34
2022-09-23T20:09:15.992Z,97794.97
2022-09-23T20:11:44.371Z,97792.50
2022-09-23T20:14:13.244Z,97789.72
2022-09-23T20:16:41.005Z,97783.22
2022-09-23T20:19:10.093Z,97779.84
2022-09-23T20:21:38.061Z,97769.41
2022-09-23T20:24:07.123Z,97777.97
2022-09-23T20:26:53.623Z,97773.47
2022-09-23T20:29:21.352Z,97767.56
2022-09-23T20:31:49.288Z,97768.38
2022-09-23T20:34:17.052Z,97772.06
2022-09-23T20:36:44.811Z,97770.22
2022-09-23T20:39:13.073Z,97772.44
2022-09-23T20:41:40.907Z,97774.72
2022-09-23T20:44:14.302Z,97778.22
2022-09-23T20:46:48.589Z,97770.22
2022-09-23T20:49:17.817Z,97762.00
2022-09-23T20:51:48.065Z,97767.44
2022-09-23T20:54:19.261Z,97772.16
2022-09-23T20:56:47.646Z,97761.75
2022-09-23T20:59:17.975Z,97766.81
2022-09-23T21:01:47.807Z,97762.09
2022-09-23T21:04:15.819Z,97762.44
2022-09-23T21:06:43.540Z,97754.25
2022-09-23T21:09:11.358Z,97760.03
2022-09-23T21:11:39.091Z,97754.09
2022-09-23T21:14:07.048Z,97761.84
2022-09-23T21:16:35.186Z,97751.44
2022-09-23T21:19:03.938Z,97751.19
2022-09-23T21:21:31.651Z,97749.72
2022-09-23T21:24:17.290Z,97750.53
2022-09-23T21:26:47.969Z,97745.22
2022-09-23T21:29:15.750Z,97742.31
2022-09-23T21:31:43.583Z,97740.09
2022-09-23T21:34:11.740Z,97743.59
2022-09-23T21:36:44.383Z,97740.94
2022-09-23T21:39:12.725Z,97737.22
2022-09-23T21:41:40.663Z,97736.41
2022-09-23T21:44:08.743Z,97730.97
2022-09-23T21:46:37.042Z,97736.50
2022-09-23T21:49:05.521Z,97735.59
2022-09-23T21:51:37.810Z,97730.75
2022-09-23T21:54:06.614Z,97730.75
2022-09-23T21:56:36.630Z,97734.22
2022-09-23T21:59:05.341Z,97728.81
2022-09-23T22:01:36.459Z,97732.84
2022-09-23T22:04:10.504Z,97726.03
2022-09-23T22:06:40.619Z,97722.56
2022-09-23T22:09:12.938Z,97731.50
2022-09-23T22:12:00.301Z,97728.38
2022-09-23T22:14:28.499Z,97722.13
2022-09-23T22:16:59.339Z,97723.53
2022-09-23T22:19:29.069Z,97720.84
2022-09-23T22:21:56.778Z,97727.13
2022-09-23T22:24:24.669Z,97710.19
2022-09-23T22:26:52.698Z,97711.38
2022-09-23T22:29:38.988Z,97710.44
2022-09-23T22:32:30.170Z,97711.81
2022-09-23T22:34:58.324Z,97711.00
2022-09-23T22:37:33.000Z,97708.78
2022-09-23T22:40:02.662Z,97706.72
2022-09-23T22:42:31.148Z,97704.38
2022-09-23T22:44:59.098Z,97703.34
2022-09-23T22:47:27.389Z,97700.31
2022-09-23T22:49:55.639Z,97701.03
2022-09-23T22:52:24.742Z,97698.00
2022-09-23T22:54:52.928Z,97702.41
2022-09-23T22:57:20.688Z,97699.06
2022-09-23T22:59:48.554Z,97696.63
2022-09-23T23:02:18.709Z,97693.84
2022-09-23T23:04:47.821Z,97689.31
2022-09-23T23:07:20.538Z,97690.13
2022-09-23T23:09:52.369Z,97689.44
2022-09-23T23:12:21.071Z,97689.66
2022-09-23T23:14:49.929Z,97684.44
2022-09-23T23:17:18.892Z,97678.31
2022-09-23T23:19:47.680Z,97683.38
2022-09-23T23:22:15.449Z,97680.63
2022-09-23T23:24:43.403Z,97682.72
2022-09-23T23:27:11.111Z,97676.66
2022-09-23T23:29:38.838Z,97673.66
2022-09-23T23:32:07.817Z,97675.28
2022-09-23T23:34:35.518Z,97672.63
2022-09-23T23:37:03.316Z,97672.63
2022-09-23T23:39:31.027Z,97668.91
2022-09-23T23:41:58.913Z,97679.56
2022-09-23T23:44:27.622Z,97678.16
2022-09-23T23:46:55.570Z,97673.31
2022-09-23T23:49:23.287Z,97669.81
2022-09-23T23:51:51.051Z,97674.34
2022-09-23T23:54:18.819Z,97673.78
2022-09-23T23:56:46.728Z,97671.78
2022-09-23T23:59:14.467Z,97673.06
